Time;durP1;ratioP1;P1;durP2;ratioP2;P2;SDS_P1;SDS_P2;PMS_P1;PMS_P2;Temp;Humidity;BMP_temperature;BMP_pressure;BME280_temperature;BME280_humidity;BME280_pressure;Samples;Min_cycle;Max_cycle;Signal;HPM_P1;HPM_P2
2022/09/10 00:01:48;;;;;;;4.15;1.10;;;;;;;17.28;66.71;98940.53;5221390;28;20061;-67
2022/09/10 00:04:38;;;;;;;1.55;0.80;;;;;;;16.77;68.86;98940.50;5202789;28;20060;-67
2022/09/10 00:07:30;;;;;;;4.40;0.65;;;;;;;16.85;68.42;98943.94;5206081;28;20048;-67
2022/09/10 00:10:21;;;;;;;5.25;0.70;;;;;;;17.02;67.40;98935.69;5222076;28;20041;-67
2022/09/10 00:13:13;;;;;;;5.13;0.82;;;;;;;16.98;67.46;98927.19;5239493;28;20515;-67
2022/09/10 00:16:05;;;;;;;5.32;0.85;;;;;;;16.97;67.86;98935.41;5215692;28;20053;-67
2022/09/10 00:18:59;;;;;;;3.13;0.75;;;;;;;16.78;68.52;98918.06;5221106;28;20067;-67
2022/09/10 00:21:49;;;;;;;4.07;0.88;;;;;;;17.06;67.45;98929.78;5248171;28;20087;-67
2022/09/10 00:24:39;;;;;;;5.65;0.80;;;;;;;16.79;68.85;98923.25;5202067;28;20045;-67
2022/09/10 00:27:30;;;;;;;3.70;0.70;;;;;;;16.77;69.55;98935.97;5214134;28;20435;-67
2022/09/10 00:30:21;;;;;;;5.93;0.75;;;;;;;16.81;68.63;98928.41;5206696;28;20056;-67
2022/09/10 00:33:12;;;;;;;3.40;0.80;;;;;;;16.77;68.88;98917.25;5213514;28;20144;-67
2022/09/10 00:36:12;;;;;;;2.85;0.93;;;;;;;17.07;67.61;98925.25;5214825;28;20288;-67
2022/09/10 00:39:12;;;;;;;3.28;0.88;;;;;;;17.12;67.95;98933.56;5220981;28;20537;-67
2022/09/10 00:42:02;;;;;;;3.75;0.98;;;;;;;17.11;67.93;98930.03;5220912;28;20139;-67
2022/09/10 00:44:56;;;;;;;5.20;0.80;;;;;;;17.05;67.97;98929.94;5186599;28;20064;-67
2022/09/10 00:47:50;;;;;;;2.25;0.82;;;;;;;16.84;69.90;98933.41;5220074;28;20095;-67
2022/09/10 00:50:44;;;;;;;6.47;1.25;;;;;;;16.94;69.63;98927.75;5221618;28;20215;-67
2022/09/10 00:53:35;;;;;;;4.10;1.10;;;;;;;16.82;70.54;98932.75;5211492;28;20425;-67
2022/09/10 00:56:27;;;;;;;5.07;1.65;;;;;;;16.78;70.93;98948.34;5222439;28;20052;-67
2022/09/10 00:59:20;;;;;;;5.43;1.10;;;;;;;16.85;70.97;98946.63;5225697;28;20111;-67
2022/09/10 01:02:10;;;;;;;2.40;1.00;;;;;;;16.88;71.45;98940.03;5217039;28;20057;-67
2022/09/10 01:05:03;;;;;;;3.10;1.08;;;;;;;17.20;69.22;98928.09;5207536;28;20100;-67
2022/09/10 01:07:53;;;;;;;1.30;0.80;;;;;;;17.04;69.32;98920.25;5222782;28;20049;-67
2022/09/10 01:11:10;;;;;;;4.43;1.15;;;;;;;17.30;67.92;98931.28;5223818;28;20060;-67
2022/09/10 01:14:35;;;;;;;2.65;1.00;;;;;;;17.11;69.80;98938.06;5219600;28;20184;-67
2022/09/10 01:17:29;;;;;;;3.17;1.00;;;;;;;17.17;69.52;98936.50;5222952;28;20047;-67
2022/09/10 01:20:44;;;;;;;2.50;1.02;;;;;;;17.00;69.56;98935.06;5224391;28;20395;-67
2022/09/10 01:23:53;;;;;;;3.30;0.90;;;;;;;16.92;70.54;98938.66;5225243;28;20056;-67
2022/09/10 01:27:02;;;;;;;5.47;1.00;;;;;;;17.08;69.36;98942.97;5217402;28;20556;-67
2022/09/10 01:30:02;;;;;;;5.70;1.02;;;;;;;17.07;69.73;98944.81;5213240;28;20203;-67
2022/09/10 01:33:19;;;;;;;2.33;1.00;;;;;;;17.04;69.48;98933.66;5218320;28;20080;-67
2022/09/10 01:36:15;;;;;;;1.88;0.88;;;;;;;16.96;70.18;98949.84;5244674;28;20059;-67
2022/09/10 01:39:05;;;;;;;4.80;1.17;;;;;;;17.27;68.36;98946.91;5226286;28;20072;-67
2022/09/10 01:41:55;;;;;;;9.35;1.42;;;;;;;17.08;69.71;98942.97;5245947;28;20052;-67
2022/09/10 01:44:52;;;;;;;7.05;1.00;;;;;;;17.06;69.93;98942.34;5205840;28;20443;-67
2022/09/10 01:48:09;;;;;;;3.20;1.00;;;;;;;17.03;69.06;98927.47;5210946;28;20041;-67
2022/09/10 01:51:23;;;;;;;2.67;0.80;;;;;;;17.06;69.72;98942.34;5210107;28;20487;-67
2022/09/10 01:54:29;;;;;;;6.45;0.95;;;;;;;17.07;69.73;98935.97;5206111;28;20107;-67
2022/09/10 01:57:54;;;;;;;4.35;0.95;;;;;;;16.79;70.04;98919.75;5222854;28;20045;-67
2022/09/10 02:00:58;;;;;;;6.60;0.73;;;;;;;16.96;68.39;98931.09;5223375;28;20060;-67
2022/09/10 02:03:55;;;;;;;2.38;0.47;;;;;;;16.67;69.60;98932.72;5206204;28;20052;-67
2022/09/10 02:06:47;;;;;;;1.80;0.60;;;;;;;16.86;69.61;98926.84;5218846;28;20061;-67
2022/09/10 02:09:39;;;;;;;3.55;0.52;;;;;;;16.59;69.47;98917.59;5209115;28;20486;-67
2022/09/10 02:12:30;;;;;;;0.93;0.50;;;;;;;16.66;70.04;98926.53;5220773;28;20060;-67
2022/09/10 02:15:39;;;;;;;4.28;0.90;;;;;;;16.73;69.45;98937.34;5212782;28;20068;-67
2022/09/10 02:18:42;;;;;;;1.02;0.50;;;;;;;16.77;70.02;98930.63;5222992;28;20191;-67
2022/09/10 02:21:33;;;;;;;5.30;0.55;;;;;;;16.69;70.18;98930.69;5213005;28;20064;-67
2022/09/10 02:24:26;;;;;;;1.73;0.60;;;;;;;16.67;70.28;98924.69;5205022;28;20656;-67
2022/09/10 02:27:16;;;;;;;2.22;0.40;;;;;;;16.58;69.36;98925.78;5226478;28;20139;-67
2022/09/10 02:30:07;;;;;;;2.92;0.52;;;;;;;16.61;70.24;98928.09;5224028;28;20045;-67
2022/09/10 02:32:59;;;;;;;4.47;0.80;;;;;;;16.81;69.53;98936.44;5213817;28;20438;-67
2022/09/10 02:35:50;;;;;;;2.72;0.60;;;;;;;16.70;70.24;98910.13;5215315;28;20045;-67
2022/09/10 02:38:41;;;;;;;3.40;0.40;;;;;;;16.77;69.36;98917.25;5222348;28;20107;-67
2022/09/10 02:41:35;;;;;;;0.55;0.40;;;;;;;16.88;69.27;98927.47;5206574;28;20083;-67
2022/09/10 02:44:27;;;;;;;1.65;0.50;;;;;;;16.72;70.15;98924.97;5202058;28;20061;-67
2022/09/10 02:47:17;;;;;;;2.38;0.70;;;;;;;16.93;69.26;98915.41;5223356;28;20049;-67
2022/09/10 02:50:08;;;;;;;3.30;0.60;;;;;;;16.80;69.69;98929.44;5222778;28;20115;-67
2022/09/10 02:52:59;;;;;;;0.93;0.70;;;;;;;16.67;70.03;98924.69;5213846;28;20068;-67
2022/09/10 02:55:49;;;;;;;3.10;0.75;;;;;;;16.59;70.66;98917.59;5212874;28;20195;-67
2022/09/10 02:58:40;;;;;;;3.80;1.00;;;;;;;16.90;69.94;98913.91;5222017;28;20167;-67
2022/09/10 03:01:34;;;;;;;2.42;0.80;;;;;;;16.81;70.67;98920.38;5222191;28;20048;-68
2022/09/10 03:04:26;;;;;;;8.85;1.00;;;;;;;16.79;71.77;98917.91;5204281;28;20519;-67
2022/09/10 03:07:19;;;;;;;7.55;1.10;;;;;;;16.47;71.51;98891.47;5218499;28;20225;-67
2022/09/10 03:10:09;;;;;;;4.03;0.98;;;;;;;16.55;71.59;98912.78;5223177;28;20127;-67
2022/09/10 03:13:00;;;;;;;7.72;0.88;;;;;;;16.84;70.20;98910.13;5215426;28;20574;-67
2022/09/10 03:15:50;;;;;;;5.85;0.93;;;;;;;16.67;70.49;98906.78;5211187;28;20087;-67
2022/09/10 03:18:41;;;;;;;2.45;0.90;;;;;;;16.69;70.37;98893.22;5222775;28;20403;-67
2022/09/10 03:21:33;;;;;;;2.30;1.23;;;;;;;16.76;70.03;98902.19;5220708;28;20131;-67
2022/09/10 03:24:24;;;;;;;4.63;1.25;;;;;;;16.73;70.95;98907.88;5204277;28;20061;-67
2022/09/10 03:27:15;;;;;;;3.78;0.98;;;;;;;17.09;69.62;98912.50;5221786;28;20056;-67
2022/09/10 03:30:06;;;;;;;4.65;1.20;;;;;;;16.79;71.54;98917.91;5221639;28;20569;-67
2022/09/10 03:32:57;;;;;;;4.07;1.10;;;;;;;16.76;70.22;98896.84;5215656;28;20083;-67
2022/09/10 03:35:47;;;;;;;2.78;1.02;;;;;;;16.77;70.98;98911.88;5212589;28;20049;-67
2022/09/10 03:38:38;;;;;;;4.60;1.20;;;;;;;16.66;71.72;98907.81;5222897;28;20103;-67
2022/09/10 03:41:29;;;;;;;3.50;1.10;;;;;;;16.73;71.13;98907.88;5221977;28;20049;-67
2022/09/10 03:44:20;;;;;;;5.88;1.20;;;;;;;16.70;70.95;98900.22;5189121;28;20069;-67
2022/09/10 03:47:11;;;;;;;5.65;1.10;;;;;;;16.85;70.19;98871.63;5217132;28;20053;-67
2022/09/10 03:50:03;;;;;;;3.92;1.23;;;;;;;16.80;70.87;98897.31;5221988;28;20087;-67
2022/09/10 03:52:55;;;;;;;5.90;1.25;;;;;;;16.83;71.46;98899.59;5199506;28;20058;-67
2022/09/10 03:55:46;;;;;;;2.92;1.20;;;;;;;16.77;71.29;98908.38;5211472;28;20114;-68
2022/09/10 03:58:38;;;;;;;3.92;1.10;;;;;;;16.99;70.80;98895.91;5206738;28;20499;-68
2022/09/10 04:01:30;;;;;;;2.03;1.08;;;;;;;17.09;70.20;98907.97;5207109;28;20056;-68
2022/09/10 04:04:20;;;;;;;8.63;1.50;;;;;;;17.18;69.56;98905.19;5202735;28;20088;-67
2022/09/10 04:07:11;;;;;;;2.95;1.40;;;;;;;17.08;69.50;98873.31;5220906;28;20052;-67
2022/09/10 04:10:02;;;;;;;2.70;1.30;;;;;;;17.18;70.57;98905.19;5222720;28;20060;-68
2022/09/10 04:12:52;;;;;;;5.63;1.48;;;;;;;17.28;69.20;98895.81;5215154;28;20440;-67
2022/09/10 04:15:45;;;;;;;3.85;1.50;;;;;;;16.91;70.60;98894.13;5210444;28;20410;-68
2022/09/10 04:18:35;;;;;;;2.97;1.23;;;;;;;17.02;70.40;98893.69;5220781;28;20517;-67
2022/09/10 04:21:26;;;;;;;5.22;1.30;;;;;;;17.05;70.19;98895.97;5206365;28;20417;-68
2022/09/10 04:24:17;;;;;;;6.57;1.67;;;;;;;17.14;70.57;98900.19;5202765;28;20056;-67
2022/09/10 04:27:07;;;;;;;4.40;1.10;;;;;;;16.99;70.69;98903.94;5247980;28;20049;-68
2022/09/10 04:29:57;;;;;;;6.00;1.70;;;;;;;16.91;71.67;98916.38;5226105;28;20052;-68
2022/09/10 04:32:48;;;;;;;2.97;1.30;;;;;;;16.77;71.65;98906.53;5219932;28;20474;-67
2022/09/10 04:35:38;;;;;;;2.50;1.20;;;;;;;16.85;71.48;98911.81;5203407;28;20331;-67
2022/09/10 04:38:29;;;;;;;4.90;1.30;;;;;;;16.90;71.69;98913.91;5204210;28;20128;-68
2022/09/10 04:41:20;;;;;;;4.25;1.40;;;;;;;16.86;71.63;98912.63;5208969;28;20049;-68
2022/09/10 04:44:10;;;;;;;3.28;1.23;;;;;;;16.82;71.21;98922.88;5205606;28;20067;-67
2022/09/10 04:47:01;;;;;;;5.65;1.10;;;;;;;16.74;71.58;98909.53;5249739;28;20052;-68
2022/09/10 04:49:51;;;;;;;4.82;1.10;;;;;;;17.03;71.30;98923.97;5226174;28;20738;-68
2022/09/10 04:52:43;;;;;;;3.90;1.27;;;;;;;16.94;71.58;98925.06;5230971;22;20059;-71
2022/09/10 04:55:34;;;;;;;4.63;1.50;;;;;;;17.00;70.95;98930.53;5262903;28;20052;-72
2022/09/10 04:58:24;;;;;;;6.28;1.60;;;;;;;16.97;71.50;98932.75;5259786;28;20051;-72
2022/09/10 05:01:14;;;;;;;2.92;1.00;;;;;;;17.00;71.44;98935.06;5258654;28;20061;-73
2022/09/10 05:04:06;;;;;;;1.23;1.00;;;;;;;16.93;71.64;98934.13;5228738;28;20071;-73
2022/09/10 05:06:59;;;;;;;3.17;1.55;;;;;;;16.98;71.64;98939.75;5255581;28;20524;-73
2022/09/10 05:09:49;;;;;;;1.67;0.95;;;;;;;16.97;71.66;98936.25;5245500;28;20529;-72
2022/09/10 05:12:39;;;;;;;3.50;1.17;;;;;;;17.04;70.71;98933.66;5254970;28;20048;-71
2022/09/10 05:15:30;;;;;;;2.70;1.02;;;;;;;16.97;71.29;98935.41;5246020;28;20052;-73
2022/09/10 05:18:21;;;;;;;3.25;1.20;;;;;;;17.06;70.98;98928.94;5242453;28;20126;-73
2022/09/10 05:21:11;;;;;;;1.55;0.98;;;;;;;17.07;71.53;98944.81;5242537;28;20048;-72
2022/09/10 05:24:03;;;;;;;5.22;1.20;;;;;;;17.17;71.11;98941.03;5228012;28;20060;-72
2022/09/10 05:26:55;;;;;;;1.67;0.70;;;;;;;17.21;70.90;98943.13;5254368;28;20469;-72
2022/09/10 05:29:46;;;;;;;4.28;1.15;;;;;;;17.48;69.18;98927.34;5259200;28;20083;-72
2022/09/10 05:32:38;;;;;;;1.58;0.90;;;;;;;17.42;68.40;98928.13;5241623;28;20063;-71
2022/09/10 05:35:29;;;;;;;6.10;1.27;;;;;;;17.18;69.10;98921.25;5246745;28;20075;-72
2022/09/10 05:38:21;;;;;;;1.92;0.93;;;;;;;17.33;69.45;98936.28;5243701;28;20087;-72
2022/09/10 05:41:12;;;;;;;3.25;1.00;;;;;;;17.36;69.49;98935.09;5257572;28;20541;-73
2022/09/10 05:44:10;;;;;;;3.88;1.10;;;;;;;17.28;69.22;98927.97;5222650;28;20198;-70
2022/09/10 05:47:23;;;;;;;5.43;1.10;;;;;;;17.31;69.40;98924.91;5244645;28;20135;-73
2022/09/10 05:50:16;;;;;;;6.18;0.90;;;;;;;17.27;70.11;98937.03;5244880;28;20060;-72
2022/09/10 05:53:12;;;;;;;2.28;0.80;;;;;;;17.04;70.12;98905.00;5237794;28;20062;-70
2022/09/10 05:56:04;;;;;;;1.90;0.80;;;;;;;17.05;70.31;98921.91;5252291;28;20060;-72
2022/09/10 05:58:55;;;;;;;2.38;0.88;;;;;;;17.20;69.95;98935.31;5244134;28;20425;-72
2022/09/10 06:01:46;;;;;;;2.72;0.85;;;;;;;17.23;70.18;98927.72;5244298;28;20059;-73
2022/09/10 06:04:37;;;;;;;2.88;0.98;;;;;;;17.32;69.80;98931.94;5226557;28;20383;-73
2022/09/10 06:07:29;;;;;;;11.70;6.60;;;;;;;17.33;69.87;98946.19;5243395;28;20101;-71
2022/09/10 06:10:19;;;;;;;5.55;2.70;;;;;;;17.37;69.60;98942.91;5243107;28;20060;-72
2022/09/10 06:13:12;;;;;;;3.47;1.25;;;;;;;17.36;69.71;98943.94;5236479;28;20091;-71
2022/09/10 06:16:03;;;;;;;9.40;1.10;;;;;;;17.35;69.78;98954.84;5237071;28;20051;-72
2022/09/10 06:18:57;;;;;;;1.27;0.73;;;;;;;17.38;69.78;98955.31;5257232;28;20052;-73
2022/09/10 06:21:51;;;;;;;4.03;0.77;;;;;;;17.32;69.50;98945.34;5229865;28;20524;-72
2022/09/10 06:24:42;;;;;;;1.80;0.80;;;;;;;17.55;69.08;98952.41;5226653;28;20417;-73
2022/09/10 06:27:33;;;;;;;1.13;0.80;;;;;;;17.51;69.55;98953.78;5256437;28;20051;-72
2022/09/10 06:30:25;;;;;;;2.85;0.80;;;;;;;17.54;69.20;98961.44;5257506;28;20418;-72
2022/09/10 06:33:15;;;;;;;1.05;0.73;;;;;;;17.57;69.30;98966.44;5234678;28;20063;-71
2022/09/10 06:36:08;;;;;;;5.22;1.33;;;;;;;17.58;69.16;98970.78;5252274;28;20050;-72
2022/09/10 06:39:00;;;;;;;2.47;0.70;;;;;;;17.61;68.46;98967.72;5243587;28;20051;-72
2022/09/10 06:41:53;;;;;;;1.52;0.70;;;;;;;17.64;69.88;98970.03;5228340;28;20071;-71
2022/09/10 06:45:02;;;;;;;3.38;1.10;;;;;;;17.69;69.48;98972.97;5226689;28;20542;-72
2022/09/10 06:48:26;;;;;;;2.15;1.08;;;;;;;17.71;69.88;98976.28;5230422;28;20044;-72
2022/09/10 06:51:38;;;;;;;6.63;1.58;;;;;;;17.88;69.19;98970.69;5255884;28;20101;-72
2022/09/10 06:54:31;;;;;;;2.80;1.05;;;;;;;18.03;69.41;98982.22;5226462;28;20064;-71
2022/09/10 06:57:32;;;;;;;1.00;0.70;;;;;;;18.05;68.52;98978.31;5242959;28;20052;-72
2022/09/10 07:00:24;;;;;;;4.38;0.90;;;;;;;17.93;68.92;98985.22;5243075;28;20049;-73
2022/09/10 07:03:19;;;;;;;4.25;1.20;;;;;;;18.23;68.69;98985.91;5234120;28;20164;-70
2022/09/10 07:06:14;;;;;;;3.72;1.00;;;;;;;18.36;68.73;98984.38;5251370;28;20350;-72
2022/09/10 07:09:06;;;;;;;8.68;0.93;;;;;;;18.47;68.41;98998.06;5249840;28;20425;-71
2022/09/10 07:12:03;;;;;;;2.45;1.00;;;;;;;18.51;69.03;98991.31;5247123;28;20616;-72
2022/09/10 07:14:57;;;;;;;2.38;0.90;;;;;;;18.38;67.74;98993.88;5229097;28;20051;-72
2022/09/10 07:17:49;;;;;;;4.22;1.00;;;;;;;18.37;68.28;98996.75;5238401;28;20052;-71
2022/09/10 07:20:44;;;;;;;1.63;1.00;;;;;;;18.10;68.96;99001.88;5240561;28;20418;-73
2022/09/10 07:23:34;;;;;;;2.35;1.00;;;;;;;18.21;68.66;99004.06;5229142;28;20060;-72
2022/09/10 07:26:26;;;;;;;1.95;0.88;;;;;;;18.42;68.52;99005.88;5253725;28;20107;-71
2022/09/10 07:29:18;;;;;;;4.03;0.93;;;;;;;18.53;68.73;99013.41;5244046;28;20135;-71
2022/09/10 07:32:08;;;;;;;3.67;1.00;;;;;;;18.59;67.23;99003.75;5250141;28;20464;-74
2022/09/10 07:35:02;;;;;;;3.13;1.00;;;;;;;18.53;67.50;99012.56;5239757;28;20057;-72
2022/09/10 07:37:53;;;;;;;3.22;0.82;;;;;;;18.77;67.89;99012.19;5242386;28;20087;-72
2022/09/10 07:40:44;;;;;;;1.38;0.82;;;;;;;18.82;65.03;99014.28;5241656;28;20063;-72
2022/09/10 07:43:35;;;;;;;2.60;0.80;;;;;;;18.84;66.29;99025.66;5232604;28;20064;-72
2022/09/10 07:46:27;;;;;;;5.72;2.05;;;;;;;18.89;66.44;99019.69;5246938;28;20063;-72
2022/09/10 07:49:19;;;;;;;3.47;1.50;;;;;;;18.82;67.34;99027.72;5245705;28;20051;-72
2022/09/10 07:52:12;;;;;;;1.45;0.75;;;;;;;19.03;65.50;99029.50;5255365;28;20063;-74
2022/09/10 07:55:10;;;;;;;4.78;0.70;;;;;;;18.79;66.02;99038.84;5228700;28;20127;-71
2022/09/10 07:58:02;;;;;;;2.47;0.70;;;;;;;19.00;65.30;99024.50;5241394;28;20055;-72
2022/09/10 08:00:54;;;;;;;3.47;0.90;;;;;;;19.05;65.31;99032.81;5241693;28;20041;-70
2022/09/10 08:03:45;;;;;;;0.77;0.57;;;;;;;18.89;66.31;99039.31;5255022;28;20060;-71
2022/09/10 08:06:39;;;;;;;2.60;0.70;;;;;;;18.93;67.03;99039.75;5270968;28;20110;-72
2022/09/10 08:09:29;;;;;;;2.28;0.93;;;;;;;19.01;66.09;99037.75;5256982;28;20063;-71
2022/09/10 08:12:20;;;;;;;1.35;0.60;;;;;;;19.14;66.16;99034.31;5257323;28;20044;-71
2022/09/10 08:15:11;;;;;;;1.23;0.82;;;;;;;19.02;64.80;99049.34;5239890;28;20790;-77
2022/09/10 08:18:03;;;;;;;2.63;0.70;;;;;;;19.09;65.09;99034.06;5260813;28;20425;-73
2022/09/10 08:20:54;;;;;;;1.63;0.40;;;;;;;19.38;64.50;99051.00;5253275;28;20063;-74
2022/09/10 08:23:49;;;;;;;3.03;0.60;;;;;;;19.15;62.55;99052.09;5247548;28;20056;-74
2022/09/10 08:26:41;;;;;;;2.13;0.60;;;;;;;19.33;65.11;99053.44;5256302;28;20052;-71
2022/09/10 08:29:31;;;;;;;3.85;0.80;;;;;;;19.58;64.29;99059.16;5260842;28;20547;-71
2022/09/10 08:32:23;;;;;;;2.72;0.90;;;;;;;19.74;63.60;99040.00;5252377;28;20052;-72
2022/09/10 08:35:15;;;;;;;6.03;0.88;;;;;;;19.53;63.02;99053.53;5235285;28;20716;-69
2022/09/10 08:38:05;;;;;;;2.92;0.80;;;;;;;20.23;61.98;99056.88;5251858;28;20060;-70
2022/09/10 08:40:57;;;;;;;4.47;0.80;;;;;;;19.99;61.69;99050.22;5255787;28;20080;-71
2022/09/10 08:44:02;;;;;;;3.53;1.15;;;;;;;21.12;62.03;99045.72;5238688;28;20052;-69
2022/09/10 08:47:08;;;;;;;2.55;0.65;;;;;;;20.56;59.21;99044.34;5257780;28;20040;-71
2022/09/10 08:50:10;;;;;;;4.05;0.82;;;;;;;20.78;60.80;99049.50;5268512;28;20089;-68
2022/09/10 08:53:04;;;;;;;3.10;0.77;;;;;;;20.39;58.57;99049.25;5242410;28;20138;-68
2022/09/10 08:56:01;;;;;;;5.47;0.70;;;;;;;20.48;60.74;99043.66;5245206;28;20097;-70
2022/09/10 08:59:13;;;;;;;1.95;0.60;;;;;;;20.29;60.57;99056.91;5258525;28;20073;-71
2022/09/10 09:02:21;;;;;;;3.97;0.80;;;;;;;20.36;61.18;99062.28;5234738;28;20185;-74
2022/09/10 09:05:39;;;;;;;3.80;0.77;;;;;;;19.88;60.97;99060.53;5254689;28;20071;-69
2022/09/10 09:08:40;;;;;;;2.50;0.65;;;;;;;20.03;60.42;99043.38;5254584;28;20075;-72
2022/09/10 09:11:44;;;;;;;5.63;1.13;;;;;;;19.64;61.65;99055.69;5283722;27;20043;-72
2022/09/10 09:14:44;;;;;;;3.63;1.08;;;;;;;19.87;60.15;99064.28;5224059;28;20118;-71
2022/09/10 09:17:48;;;;;;;2.47;1.00;;;;;;;20.55;59.85;99063.38;5266455;28;20523;-71
2022/09/10 09:20:44;;;;;;;5.65;1.00;;;;;;;20.07;60.88;99052.72;5247275;28;20283;-71
2022/09/10 09:23:49;;;;;;;5.57;1.35;;;;;;;20.12;59.98;99056.44;5234544;28;20544;-71
2022/09/10 09:27:08;;;;;;;2.08;0.80;;;;;;;20.63;59.53;99058.63;5257367;28;20052;-71
2022/09/10 09:30:05;;;;;;;2.72;0.82;;;;;;;20.35;59.16;99039.09;5244354;28;20516;-71
2022/09/10 09:33:11;;;;;;;8.77;0.93;;;;;;;20.16;58.69;99057.72;5238500;28;20426;-70
2022/09/10 09:36:03;;;;;;;3.67;0.98;;;;;;;19.87;59.21;99050.00;5252312;28;20055;-71
2022/09/10 09:38:56;;;;;;;6.30;0.73;;;;;;;19.81;58.14;99040.84;5231290;28;20419;-71
2022/09/10 09:41:54;;;;;;;7.65;0.70;;;;;;;19.31;58.63;99052.81;5243643;28;20059;-71
2022/09/10 09:45:06;;;;;;;6.05;1.00;;;;;;;19.46;58.61;99056.19;5227407;28;20056;-71
2022/09/10 09:47:57;;;;;;;6.20;0.90;;;;;;;18.65;60.10;99054.00;5258093;28;20109;-70
2022/09/10 09:50:50;;;;;;;4.40;1.00;;;;;;;19.28;58.52;99054.03;5244102;28;20060;-70
2022/09/10 09:53:40;;;;;;;5.35;0.85;;;;;;;19.41;57.47;99031.78;5234013;28;20438;-70
2022/09/10 09:56:41;;;;;;;3.53;0.63;;;;;;;19.96;57.16;99035.28;5242737;28;20209;-72
2022/09/10 09:59:33;;;;;;;2.80;0.77;;;;;;;19.80;58.22;99058.03;5258743;28;20065;-72
2022/09/10 10:02:24;;;;;;;3.13;0.80;;;;;;;19.20;58.41;99052.34;5243874;28;20075;-72
2022/09/10 10:05:23;;;;;;;5.75;0.70;;;;;;;19.17;58.89;99058.13;5230875;28;20186;-71
2022/09/10 10:08:29;;;;;;;4.47;0.70;;;;;;;19.61;58.56;99062.28;5244417;28;20129;-71
2022/09/10 10:11:21;;;;;;;4.15;0.82;;;;;;;19.62;58.78;99055.84;5245060;28;20631;-71
2022/09/10 10:14:30;;;;;;;4.00;0.60;;;;;;;19.70;58.28;99061.09;5225877;28;20145;-72
2022/09/10 10:17:23;;;;;;;2.63;0.63;;;;;;;19.50;59.04;99062.81;5263855;28;20445;-71
2022/09/10 10:20:15;;;;;;;3.80;0.95;;;;;;;19.58;58.73;99057.28;5243060;28;20146;-71
2022/09/10 10:23:32;;;;;;;5.05;0.75;;;;;;;19.44;60.17;99060.97;5238340;28;20071;-72
2022/09/10 10:26:31;;;;;;;4.32;0.85;;;;;;;20.23;58.00;99040.72;5240136;28;20548;-71
2022/09/10 10:29:21;;;;;;;6.22;0.80;;;;;;;20.91;56.40;99049.47;5243168;28;20417;-71
2022/09/10 10:32:15;;;;;;;5.35;0.85;;;;;;;20.27;57.21;99047.38;5243699;28;20150;-70
2022/09/10 10:35:08;;;;;;;4.90;0.90;;;;;;;20.56;56.76;99043.47;5229183;28;20078;-71
2022/09/10 10:38:06;;;;;;;4.30;1.10;;;;;;;20.24;56.36;99045.09;5243473;28;20071;-71
2022/09/10 10:41:28;;;;;;;4.22;0.60;;;;;;;20.46;56.33;99034.94;5230490;28;20036;-71
2022/09/10 10:44:27;;;;;;;2.15;0.60;;;;;;;20.69;56.01;99034.56;5222683;28;20521;-72
2022/09/10 10:47:56;;;;;;;4.53;0.70;;;;;;;20.74;55.74;99030.22;5243156;28;20090;-71
2022/09/10 10:50:56;;;;;;;4.07;0.90;;;;;;;20.18;57.38;99033.28;5213477;28;20144;-71
2022/09/10 10:53:58;;;;;;;3.35;0.90;;;;;;;20.50;58.03;99031.66;5232219;28;20373;-70
2022/09/10 10:57:08;;;;;;;6.07;0.57;;;;;;;21.04;56.93;99024.38;5228586;28;20474;-71
2022/09/10 11:00:05;;;;;;;5.28;1.02;;;;;;;22.18;55.77;99028.28;5244690;28;20048;-71
2022/09/10 11:03:21;;;;;;;4.65;0.75;;;;;;;22.72;52.88;99037.66;5223595;28;20052;-71
2022/09/10 11:06:15;;;;;;;2.05;0.70;;;;;;;22.48;53.35;99013.13;5238022;28;20059;-71
2022/09/10 11:09:14;;;;;;;2.67;0.68;;;;;;;22.15;53.47;99017.88;5243141;28;20076;-72
2022/09/10 11:12:10;;;;;;;4.75;0.65;;;;;;;21.79;53.56;99025.59;5242518;28;20068;-71
2022/09/10 11:15:17;;;;;;;4.18;0.85;;;;;;;21.65;54.08;99023.16;5225928;28;20105;-71
2022/09/10 11:18:27;;;;;;;2.15;0.63;;;;;;;21.54;53.89;99017.41;5242869;28;20060;-71
2022/09/10 11:21:17;;;;;;;1.27;0.40;;;;;;;22.15;52.50;99012.50;5242845;28;20139;-71
2022/09/10 11:24:17;;;;;;;8.10;0.70;;;;;;;22.46;51.30;99006.28;5227872;28;20071;-70
2022/09/10 11:27:34;;;;;;;4.05;0.75;;;;;;;22.10;51.70;99001.53;5265481;28;20056;-71
2022/09/10 11:30:24;;;;;;;1.08;0.60;;;;;;;22.45;50.88;99008.16;5231185;28;20412;-70
2022/09/10 11:33:32;;;;;;;4.78;0.70;;;;;;;22.43;48.54;99006.72;5234899;28;20075;-70
2022/09/10 11:36:29;;;;;;;3.22;0.70;;;;;;;22.21;49.43;99000.84;5239605;28;20253;-70
2022/09/10 11:39:28;;;;;;;2.00;0.47;;;;;;;21.41;52.20;98995.03;5243439;28;20041;-71
2022/09/10 11:42:24;;;;;;;4.28;0.60;;;;;;;22.30;52.21;98998.72;5270319;28;20055;-72
2022/09/10 11:45:28;;;;;;;2.75;0.50;;;;;;;21.99;51.13;99003.06;5227678;28;20123;-71
2022/09/10 11:48:27;;;;;;;4.93;0.65;;;;;;;21.13;52.25;98996.16;5243872;28;20059;-71
2022/09/10 11:51:29;;;;;;;3.42;0.80;;;;;;;20.91;52.35;98989.38;5242445;28;20044;-71
2022/09/10 11:54:27;;;;;;;2.58;0.80;;;;;;;21.03;52.33;99003.88;5226071;28;20134;-71
2022/09/10 11:57:36;;;;;;;1.92;0.60;;;;;;;21.54;52.26;99001.22;5234144;28;20051;-70
2022/09/10 12:00:29;;;;;;;1.35;0.60;;;;;;;21.24;53.13;98995.50;5242921;28;20473;-70
2022/09/10 12:03:31;;;;;;;6.23;0.67;;;;;;;21.60;51.70;98996.00;5234142;28;20052;-71
2022/09/10 12:06:38;;;;;;;3.28;0.68;;;;;;;21.28;51.98;98993.19;5239719;28;20052;-71
2022/09/10 12:10:08;;;;;;;4.13;0.80;;;;;;;21.62;52.19;98986.63;5227636;28;20046;-71
2022/09/10 12:13:14;;;;;;;3.63;0.60;;;;;;;22.00;51.34;98993.91;5231182;28;20059;-71
2022/09/10 12:16:18;;;;;;;2.15;0.60;;;;;;;22.09;50.05;98987.19;5248939;28;20529;-71
2022/09/10 12:19:21;;;;;;;1.77;0.60;;;;;;;21.02;50.53;98978.75;5241987;28;20052;-71
2022/09/10 12:22:17;;;;;;;3.85;0.50;;;;;;;21.43;49.91;98984.88;5231655;28;20134;-71
2022/09/10 12:25:25;;;;;;;3.50;0.77;;;;;;;21.27;49.80;98983.47;5227184;28;20095;-71
2022/09/10 12:28:51;;;;;;;2.30;1.15;;;;;;;21.43;49.32;98992.97;5242076;28;20591;-71
2022/09/10 12:32:14;;;;;;;2.85;0.82;;;;;;;21.20;49.70;98985.34;5240722;28;20120;-71
2022/09/10 12:35:27;;;;;;;3.10;0.73;;;;;;;21.20;49.59;98993.44;5226063;28;20056;-71
2022/09/10 12:39:15;;;;;;;3.17;0.95;;;;;;;20.22;54.19;98996.00;5242154;28;20056;-71
2022/09/10 12:42:26;;;;;;;10.20;1.45;;;;;;;20.59;52.83;98995.41;5229119;28;20626;-71
2022/09/10 12:45:54;;;;;;;3.05;0.55;;;;;;;20.08;53.10;98987.09;5228249;28;20044;-71
2022/09/10 12:48:47;;;;;;;3.70;0.60;;;;;;;21.17;50.70;98970.41;5236366;28;20194;-71
2022/09/10 12:51:58;;;;;;;4.40;1.00;;;;;;;22.03;49.12;98980.78;5229280;28;20055;-71
2022/09/10 12:55:09;;;;;;;4.57;0.50;;;;;;;21.67;49.17;98969.81;5229931;28;20060;-71
2022/09/10 12:58:02;;;;;;;3.60;0.68;;;;;;;22.09;49.93;98967.47;5233242;28;20052;-71
2022/09/10 13:00:53;;;;;;;2.70;0.70;;;;;;;22.37;48.83;98965.19;5245721;28;20060;-71
2022/09/10 13:03:53;;;;;;;1.88;0.68;;;;;;;22.04;49.24;98968.13;5220412;28;20056;-71
2022/09/10 13:06:46;;;;;;;3.58;0.80;;;;;;;21.97;48.89;98965.47;5240354;28;20137;-71
2022/09/10 13:09:38;;;;;;;3.03;0.45;;;;;;;20.97;50.12;98957.00;5246901;28;20055;-71
2022/09/10 13:12:31;;;;;;;1.60;0.40;;;;;;;21.38;49.45;98946.94;5245129;28;20157;-71
2022/09/10 13:15:28;;;;;;;3.17;0.83;;;;;;;21.87;48.06;98961.59;5230933;28;20045;-71
2022/09/10 13:18:28;;;;;;;3.92;0.77;;;;;;;22.37;48.83;98959.78;5246703;28;20473;-71
2022/09/10 13:21:21;;;;;;;2.58;1.00;;;;;;;22.17;48.21;98959.13;5245377;28;20134;-71
2022/09/10 13:24:34;;;;;;;2.60;0.60;;;;;;;22.10;48.10;98958.31;5257165;28;20153;-71
2022/09/10 13:27:37;;;;;;;4.88;0.60;;;;;;;22.22;48.16;98954.72;5244674;28;20044;-70
2022/09/10 13:30:28;;;;;;;3.85;0.75;;;;;;;22.15;48.48;98950.38;5245680;28;20491;-71
2022/09/10 13:33:21;;;;;;;4.45;0.65;;;;;;;21.63;49.81;98949.72;5236737;28;20205;-71
2022/09/10 13:36:43;;;;;;;5.22;0.82;;;;;;;21.19;50.69;98952.19;5240987;28;20739;-71
2022/09/10 13:39:56;;;;;;;2.88;0.70;;;;;;;21.26;49.87;98955.66;5273502;28;20090;-71
2022/09/10 13:43:05;;;;;;;2.03;0.60;;;;;;;21.45;49.28;98948.53;5214598;28;20140;-71
2022/09/10 13:46:11;;;;;;;2.30;0.60;;;;;;;21.23;50.44;98953.41;5238473;28;20552;-71
2022/09/10 13:49:46;;;;;;;5.97;0.98;;;;;;;21.22;50.23;98954.41;5244860;28;20048;-71
2022/09/10 13:52:37;;;;;;;1.73;0.50;;;;;;;21.54;49.85;98962.63;5225074;28;20048;-71
2022/09/10 13:55:29;;;;;;;3.90;0.88;;;;;;;21.19;50.14;98944.09;5233881;28;20080;-71